sensor_id;sensor_type;location;lat;lon;timestamp;pressure;altitude;pressure_sealevel;temperature;humidity
55914;BME280;58179;48.776;9.124;2022-12-07T00:00:43;97394.66;;;2.65;100.00
55914;BME280;58179;48.776;9.124;2022-12-07T00:03:11;97402.28;;;2.66;100.00
55914;BME280;58179;48.776;9.124;2022-12-07T00:05:36;97400.69;;;2.65;100.00
55914;BME280;58179;48.776;9.124;2022-12-07T00:08:02;97394.66;;;2.58;100.00
55914;BME280;58179;48.776;9.124;2022-12-07T00:10:28;97393.66;;;2.59;100.00
55914;BME280;58179;48.776;9.124;2022-12-07T00:12:54;97390.03;;;2.60;100.00
55914;BME280;58179;48.776;9.124;2022-12-07T00:15:20;97393.47;;;2.61;100.00
55914;BME280;58179;48.776;9.124;2022-12-07T00:17:46;97398.06;;;2.59;100.00
55914;BME280;58179;48.776;9.124;2022-12-07T00:20:13;97388.63;;;2.64;100.00
55914;BME280;58179;48.776;9.124;2022-12-07T00:22:39;97387.63;;;2.65;100.00
55914;BME280;58179;48.776;9.124;2022-12-07T00:25:05;97388.03;;;2.62;100.00
55914;BME280;58179;48.776;9.124;2022-12-07T00:27:31;97385.19;;;2.64;100.00
55914;BME280;58179;48.776;9.124;2022-12-07T00:29:57;97390.44;;;2.64;100.00
55914;BME280;58179;48.776;9.124;2022-12-07T00:32:23;97391.22;;;2.58;100.00
55914;BME280;58179;48.776;9.124;2022-12-07T00:34:49;97392.03;;;2.65;100.00
55914;BME280;58179;48.776;9.124;2022-12-07T00:37:16;97394.25;;;2.61;100.00
55914;BME280;58179;48.776;9.124;2022-12-07T00:39:42;97391.22;;;2.64;100.00
55914;BME280;58179;48.776;9.124;2022-12-07T00:42:08;97390.03;;;2.60;100.00
55914;BME280;58179;48.776;9.124;2022-12-07T00:44:34;97385.81;;;2.59;100.00
55914;BME280;58179;48.776;9.124;2022-12-07T00:46:59;97391.84;;;2.60;100.00
55914;BME280;58179;48.776;9.124;2022-12-07T00:49:25;97387.63;;;2.59;100.00
55914;BME280;58179;48.776;9.124;2022-12-07T00:51:51;97385.81;;;2.59;100.00
55914;BME280;58179;48.776;9.124;2022-12-07T00:54:18;97386.00;;;2.58;100.00
55914;BME280;58179;48.776;9.124;2022-12-07T00:56:44;97384.41;;;2.57;100.00
55914;BME280;58179;48.776;9.124;2022-12-07T00:59:13;97393.22;;;2.56;100.00
55914;BME280;58179;48.776;9.124;2022-12-07T01:01:41;97388.81;;;2.56;100.00
55914;BME280;58179;48.776;9.124;2022-12-07T01:04:07;97391.66;;;2.55;100.00
55914;BME280;58179;48.776;9.124;2022-12-07T01:06:33;97394.25;;;2.55;100.00
55914;BME280;58179;48.776;9.124;2022-12-07T01:09:00;97384.59;;;2.49;100.00
55914;BME280;58179;48.776;9.124;2022-12-07T01:11:29;97391.22;;;2.45;100.00
55914;BME280;58179;48.776;9.124;2022-12-07T01:13:57;97392.03;;;2.45;100.00
55914;BME280;58179;48.776;9.124;2022-12-07T01:16:26;97397.44;;;2.44;100.00
55914;BME280;58179;48.776;9.124;2022-12-07T01:18:54;97395.03;;;2.42;100.00
55914;BME280;58179;48.776;9.124;2022-12-07T01:21:24;97392.63;;;2.41;100.00
55914;BME280;58179;48.776;9.124;2022-12-07T01:23:51;97392.22;;;2.37;100.00
55914;BME280;58179;48.776;9.124;2022-12-07T01:26:19;97403.66;;;2.36;100.00
55914;BME280;58179;48.776;9.124;2022-12-07T01:28:47;97401.06;;;2.36;100.00
55914;BME280;58179;48.776;9.124;2022-12-07T01:31:15;97399.44;;;2.35;100.00
55914;BME280;58179;48.776;9.124;2022-12-07T01:33:43;97398.63;;;2.34;100.00
55914;BME280;58179;48.776;9.124;2022-12-07T01:36:15;97404.09;;;2.33;100.00
55914;BME280;58179;48.776;9.124;2022-12-07T01:38:41;97404.84;;;2.33;100.00
55914;BME280;58179;48.776;9.124;2022-12-07T01:41:07;97412.13;;;2.38;100.00
55914;BME280;58179;48.776;9.124;2022-12-07T01:43:34;97410.09;;;2.33;100.00
55914;BME280;58179;48.776;9.124;2022-12-07T01:46:03;97414.91;;;2.30;100.00
55914;BME280;58179;48.776;9.124;2022-12-07T01:48:33;97409.50;;;2.25;100.00
55914;BME280;58179;48.776;9.124;2022-12-07T01:51:05;97409.88;;;2.22;100.00
55914;BME280;58179;48.776;9.124;2022-12-07T01:53:37;97413.91;;;2.18;100.00
55914;BME280;58179;48.776;9.124;2022-12-07T01:56:05;97405.84;;;2.19;100.00
55914;BME280;58179;48.776;9.124;2022-12-07T01:58:34;97411.06;;;2.19;100.00
55914;BME280;58179;48.776;9.124;2022-12-07T02:01:01;97404.03;;;2.20;100.00
55914;BME280;58179;48.776;9.124;2022-12-07T02:03:32;97403.84;;;2.21;100.00
55914;BME280;58179;48.776;9.124;2022-12-07T02:06:00;97404.66;;;2.22;100.00
55914;BME280;58179;48.776;9.124;2022-12-07T02:08:26;97403.03;;;2.21;100.00
55914;BME280;58179;48.776;9.124;2022-12-07T02:10:52;97404.84;;;2.20;100.00
55914;BME280;58179;48.776;9.124;2022-12-07T02:13:21;97404.84;;;2.20;100.00
55914;BME280;58179;48.776;9.124;2022-12-07T02:16:08;97405.44;;;2.16;100.00
55914;BME280;58179;48.776;9.124;2022-12-07T02:18:52;97406.25;;;2.10;100.00
55914;BME280;58179;48.776;9.124;2022-12-07T02:21:29;97402.00;;;2.09;100.00
55914;BME280;58179;48.776;9.124;2022-12-07T02:24:24;97398.59;;;2.08;100.00
55914;BME280;58179;48.776;9.124;2022-12-07T02:27:36;97395.19;;;2.08;100.00
55914;BME280;58179;48.776;9.124;2022-12-07T02:30:06;97392.34;;;2.03;100.00
55914;BME280;58179;48.776;9.124;2022-12-07T02:32:42;97388.94;;;2.02;100.00
55914;BME280;58179;48.776;9.124;2022-12-07T02:35:12;97390.13;;;2.00;100.00
55914;BME280;58179;48.776;9.124;2022-12-07T02:37:59;97388.53;;;1.99;100.00
55914;BME280;58179;48.776;9.124;2022-12-07T02:40:33;97383.50;;;1.97;100.00
55914;BME280;58179;48.776;9.124;2022-12-07T02:43:06;97386.91;;;1.98;100.00
55914;BME280;58179;48.776;9.124;2022-12-07T02:45:38;97382.31;;;2.00;100.00
55914;BME280;58179;48.776;9.124;2022-12-07T02:48:07;97383.28;;;1.99;100.00
55914;BME280;58179;48.776;9.124;2022-12-07T02:50:34;97387.31;;;1.94;100.00
55914;BME280;58179;48.776;9.124;2022-12-07T02:53:00;97381.06;;;1.95;100.00
55914;BME280;58179;48.776;9.124;2022-12-07T02:55:30;97378.44;;;1.95;100.00
55914;BME280;58179;48.776;9.124;2022-12-07T02:58:18;97376.28;;;1.99;100.00
55914;BME280;58179;48.776;9.124;2022-12-07T03:00:58;97371.44;;;1.96;100.00
55914;BME280;58179;48.776;9.124;2022-12-07T03:03:28;97372.47;;;1.95;100.00
55914;BME280;58179;48.776;9.124;2022-12-07T03:06:09;97367.00;;;1.97;100.00
55914;BME280;58179;48.776;9.124;2022-12-07T03:08:47;97363.22;;;2.06;100.00
55914;BME280;58179;48.776;9.124;2022-12-07T03:11:21;97365.84;;;2.06;100.00
55914;BME280;58179;48.776;9.124;2022-12-07T03:13:58;97372.47;;;2.02;100.00
55914;BME280;58179;48.776;9.124;2022-12-07T03:16:29;97361.59;;;1.98;100.00
55914;BME280;58179;48.776;9.124;2022-12-07T03:19:00;97369.63;;;2.03;100.00
55914;BME280;58179;48.776;9.124;2022-12-07T03:21:32;97368.88;;;2.03;100.00
55914;BME280;58179;48.776;9.124;2022-12-07T03:24:05;97362.25;;;2.20;100.00
55914;BME280;58179;48.776;9.124;2022-12-07T03:26:38;97360.44;;;2.20;100.00
55914;BME280;58179;48.776;9.124;2022-12-07T03:29:11;97369.91;;;2.21;100.00
55914;BME280;58179;48.776;9.124;2022-12-07T03:31:42;97363.06;;;2.14;100.00
55914;BME280;58179;48.776;9.124;2022-12-07T03:34:14;97358.81;;;2.06;100.00
55914;BME280;58179;48.776;9.124;2022-12-07T03:36:46;97358.63;;;2.01;100.00
55914;BME280;58179;48.776;9.124;2022-12-07T03:39:19;97356.56;;;1.97;100.00
55914;BME280;58179;48.776;9.124;2022-12-07T03:41:48;97352.75;;;1.92;100.00
55914;BME280;58179;48.776;9.124;2022-12-07T03:44:15;97353.94;;;1.90;100.00
55914;BME280;58179;48.776;9.124;2022-12-07T03:46:48;97345.13;;;1.84;100.00
55914;BME280;58179;48.776;9.124;2022-12-07T03:49:21;97355.19;;;1.94;100.00
55914;BME280;58179;48.776;9.124;2022-12-07T03:51:54;97351.94;;;1.85;100.00
55914;BME280;58179;48.776;9.124;2022-12-07T03:54:28;97350.72;;;1.81;100.00
55914;BME280;58179;48.776;9.124;2022-12-07T03:56:57;97349.31;;;1.79;100.00
55914;BME280;58179;48.776;9.124;2022-12-07T03:59:25;97352.31;;;1.76;100.00
55914;BME280;58179;48.776;9.124;2022-12-07T04:01:55;97354.34;;;1.80;100.00
55914;BME280;58179;48.776;9.124;2022-12-07T04:04:22;97344.91;;;1.79;100.00
55914;BME280;58179;48.776;9.124;2022-12-07T04:06:49;97349.50;;;1.77;100.00
55914;BME280;58179;48.776;9.124;2022-12-07T04:09:14;97348.88;;;1.75;100.00
55914;BME280;58179;48.776;9.124;2022-12-07T04:11:40;97345.66;;;1.73;100.00
55914;BME280;58179;48.776;9.124;2022-12-07T04:14:06;97341.03;;;1.69;100.00
55914;BME280;58179;48.776;9.124;2022-12-07T04:16:45;97341.47;;;1.72;100.00
55914;BME280;58179;48.776;9.124;2022-12-07T04:19:12;97341.66;;;1.71;100.00
55914;BME280;58179;48.776;9.124;2022-12-07T04:21:38;97339.88;;;1.71;100.00
55914;BME280;58179;48.776;9.124;2022-12-07T04:24:05;97340.88;;;1.77;100.00
55914;BME280;58179;48.776;9.124;2022-12-07T04:26:31;97353.31;;;1.81;100.00
55914;BME280;58179;48.776;9.124;2022-12-07T04:28:57;97341.50;;;1.85;100.00
55914;BME280;58179;48.776;9.124;2022-12-07T04:31:22;97336.66;;;1.82;100.00
55914;BME280;58179;48.776;9.124;2022-12-07T04:33:48;97328.22;;;1.74;100.00
55914;BME280;58179;48.776;9.124;2022-12-07T04:36:16;97314.34;;;1.73;100.00
55914;BME280;58179;48.776;9.124;2022-12-07T04:38:42;97307.31;;;1.61;100.00
55914;BME280;58179;48.776;9.124;2022-12-07T04:41:09;97305.88;;;1.58;100.00
55914;BME280;58179;48.776;9.124;2022-12-07T04:43:35;97305.09;;;1.58;100.00
55914;BME280;58179;48.776;9.124;2022-12-07T04:46:01;97304.50;;;1.55;100.00
55914;BME280;58179;48.776;9.124;2022-12-07T04:48:28;97308.06;;;1.48;100.00
55914;BME280;58179;48.776;9.124;2022-12-07T04:50:54;97295.03;;;1.48;100.00
55914;BME280;58179;48.776;9.124;2022-12-07T04:53:21;97305.06;;;1.51;100.00
55914;BME280;58179;48.776;9.124;2022-12-07T04:55:47;97292.81;;;1.51;100.00
55914;BME280;58179;48.776;9.124;2022-12-07T04:58:13;97292.19;;;1.43;100.00
55914;BME280;58179;48.776;9.124;2022-12-07T05:00:40;97291.44;;;1.49;100.00
55914;BME280;58179;48.776;9.124;2022-12-07T05:03:06;97287.19;;;1.41;100.00
55914;BME280;58179;48.776;9.124;2022-12-07T05:05:32;97287.41;;;1.46;100.00
55914;BME280;58179;48.776;9.124;2022-12-07T05:07:58;97298.22;;;1.43;100.00
55914;BME280;58179;48.776;9.124;2022-12-07T05:10:25;97300.66;;;1.51;100.00
55914;BME280;58179;48.776;9.124;2022-12-07T05:12:51;97301.44;;;1.52;100.00
55914;BME280;58179;48.776;9.124;2022-12-07T05:15:17;97309.47;;;1.50;100.00
55914;BME280;58179;48.776;9.124;2022-12-07T05:17:43;97308.63;;;1.43;100.00
55914;BME280;58179;48.776;9.124;2022-12-07T05:20:10;97307.66;;;1.51;100.00
55914;BME280;58179;48.776;9.124;2022-12-07T05:22:36;97309.91;;;1.61;100.00
55914;BME280;58179;48.776;9.124;2022-12-07T05:25:03;97301.84;;;1.42;100.00
55914;BME280;58179;48.776;9.124;2022-12-07T05:27:30;97306.59;;;1.32;100.00
55914;BME280;58179;48.776;9.124;2022-12-07T05:29:56;97304.97;;;1.25;100.00
55914;BME280;58179;48.776;9.124;2022-12-07T05:32:22;97314.94;;;1.14;100.00
55914;BME280;58179;48.776;9.124;2022-12-07T05:34:48;97322.31;;;1.04;100.00
55914;BME280;58179;48.776;9.124;2022-12-07T05:37:13;97326.88;;;0.96;100.00
55914;BME280;58179;48.776;9.124;2022-12-07T05:39:39;97324.41;;;0.88;100.00
55914;BME280;58179;48.776;9.124;2022-12-07T05:42:09;97331.56;;;0.79;100.00
55914;BME280;58179;48.776;9.124;2022-12-07T05:44:40;97327.94;;;0.73;100.00
55914;BME280;58179;48.776;9.124;2022-12-07T05:47:06;97334.09;;;0.66;100.00
55914;BME280;58179;48.776;9.124;2022-12-07T05:49:33;97337.47;;;0.60;100.00
55914;BME280;58179;48.776;9.124;2022-12-07T05:51:59;97344.66;;;0.58;100.00
55914;BME280;58179;48.776;9.124;2022-12-07T05:54:25;97343.22;;;0.55;100.00
55914;BME280;58179;48.776;9.124;2022-12-07T05:56:51;97342.59;;;0.53;100.00
55914;BME280;58179;48.776;9.124;2022-12-07T05:59:17;97343.97;;;0.49;100.00
55914;BME280;58179;48.776;9.124;2022-12-07T06:01:51;97338.97;;;0.48;100.00
55914;BME280;58179;48.776;9.124;2022-12-07T06:04:17;97335.94;;;0.44;100.00
55914;BME280;58179;48.776;9.124;2022-12-07T06:06:43;97328.97;;;0.51;100.00
55914;BME280;58179;48.776;9.124;2022-12-07T06:09:09;97334.59;;;0.55;100.00
55914;BME280;58179;48.776;9.124;2022-12-07T06:11:35;97333.09;;;0.67;100.00
55914;BME280;58179;48.776;9.124;2022-12-07T06:14:20;97328.50;;;0.69;100.00
55914;BME280;58179;48.776;9.124;2022-12-07T06:16:46;97327.94;;;0.73;100.00
55914;BME280;58179;48.776;9.124;2022-12-07T06:19:13;97332.56;;;0.78;100.00
55914;BME280;58179;48.776;9.124;2022-12-07T06:21:39;97333.19;;;0.80;100.00
55914;BME280;58179;48.776;9.124;2022-12-07T06:24:06;97353.63;;;0.83;100.00
55914;BME280;58179;48.776;9.124;2022-12-07T06:26:32;97361.91;;;0.87;100.00
55914;BME280;58179;48.776;9.124;2022-12-07T06:28:57;97348.69;;;0.88;100.00
55914;BME280;58179;48.776;9.124;2022-12-07T06:31:23;97345.44;;;0.86;100.00
55914;BME280;58179;48.776;9.124;2022-12-07T06:33:49;97341.66;;;0.89;100.00
55914;BME280;58179;48.776;9.124;2022-12-07T06:36:16;97341.66;;;0.89;100.00
55914;BME280;58179;48.776;9.124;2022-12-07T06:38:42;97348.72;;;0.95;100.00
55914;BME280;58179;48.776;9.124;2022-12-07T06:41:08;97340.91;;;0.95;100.00
55914;BME280;58179;48.776;9.124;2022-12-07T06:43:34;97340.50;;;0.98;100.00
55914;BME280;58179;48.776;9.124;2022-12-07T06:46:00;97339.47;;;0.92;100.00
55914;BME280;58179;48.776;9.124;2022-12-07T06:48:26;97338.69;;;0.98;100.00
55914;BME280;58179;48.776;9.124;2022-12-07T06:50:52;97331.28;;;0.95;100.00
55914;BME280;58179;48.776;9.124;2022-12-07T06:53:19;97329.09;;;0.99;100.00
55914;BME280;58179;48.776;9.124;2022-12-07T06:55:45;97331.50;;;1.00;100.00
55914;BME280;58179;48.776;9.124;2022-12-07T06:58:11;97340.50;;;0.98;100.00
55914;BME280;58179;48.776;9.124;2022-12-07T07:00:37;97340.97;;;1.08;100.00
55914;BME280;58179;48.776;9.124;2022-12-07T07:03:03;97342.56;;;1.02;100.00
55914;BME280;58179;48.776;9.124;2022-12-07T07:05:29;97347.38;;;1.05;100.00
55914;BME280;58179;48.776;9.124;2022-12-07T07:07:54;97349.56;;;1.02;100.00
55914;BME280;58179;48.776;9.124;2022-12-07T07:10:22;97355.94;;;0.99;100.00
55914;BME280;58179;48.776;9.124;2022-12-07T07:12:48;97352.94;;;0.96;100.00
55914;BME280;58179;48.776;9.124;2022-12-07T07:15:14;97347.53;;;0.97;100.00
55914;BME280;58179;48.776;9.124;2022-12-07T07:17:40;97348.13;;;0.99;100.00
55914;BME280;58179;48.776;9.124;2022-12-07T07:20:07;97351.00;;;1.04;100.00
55914;BME280;58179;48.776;9.124;2022-12-07T07:22:33;97357.41;;;1.08;100.00
55914;BME280;58179;48.776;9.124;2022-12-07T07:24:59;97355.94;;;0.99;100.00
55914;BME280;58179;48.776;9.124;2022-12-07T07:27:26;97360.22;;;1.07;100.00
55914;BME280;58179;48.776;9.124;2022-12-07T07:29:52;97357.28;;;1.16;100.00
55914;BME280;58179;48.776;9.124;2022-12-07T07:32:17;97361.69;;;1.16;100.00
55914;BME280;58179;48.776;9.124;2022-12-07T07:34:43;97354.28;;;1.20;100.00
55914;BME280;58179;48.776;9.124;2022-12-07T07:37:09;97357.50;;;1.22;100.00
55914;BME280;58179;48.776;9.124;2022-12-07T07:39:38;97362.91;;;1.20;100.00
55914;BME280;58179;48.776;9.124;2022-12-07T07:42:04;97351.94;;;1.31;100.00
55914;BME280;58179;48.776;9.124;2022-12-07T07:44:32;97366.16;;;1.29;100.00
55914;BME280;58179;48.776;9.124;2022-12-07T07:46:57;97371.34;;;1.29;100.00
55914;BME280;58179;48.776;9.124;2022-12-07T07:49:23;97371.16;;;1.30;100.00
55914;BME280;58179;48.776;9.124;2022-12-07T07:51:49;97366.94;;;1.29;100.00
55914;BME280;58179;48.776;9.124;2022-12-07T07:54:15;97371.13;;;1.24;100.00
55914;BME280;58179;48.776;9.124;2022-12-07T07:56:41;97375.53;;;1.23;100.00
55914;BME280;58179;48.776;9.124;2022-12-07T07:59:07;97368.00;;;1.35;100.00
55914;BME280;58179;48.776;9.124;2022-12-07T08:01:35;97372.97;;;1.30;100.00
55914;BME280;58179;48.776;9.124;2022-12-07T08:04:01;97371.22;;;1.37;100.00
55914;BME280;58179;48.776;9.124;2022-12-07T08:06:27;97370.00;;;1.33;100.00
55914;BME280;58179;48.776;9.124;2022-12-07T08:08:52;97369.38;;;1.31;100.00
55914;BME280;58179;48.776;9.124;2022-12-07T08:11:18;97372.00;;;1.37;100.00
55914;BME280;58179;48.776;9.124;2022-12-07T08:13:45;97364.19;;;1.37;100.00
55914;BME280;58179;48.776;9.124;2022-12-07T08:16:14;97372.25;;;1.42;100.00
55914;BME280;58179;48.776;9.124;2022-12-07T08:18:42;97366.84;;;1.50;100.00
55914;BME280;58179;48.776;9.124;2022-12-07T08:21:12;97373.53;;;1.66;100.00
55914;BME280;58179;48.776;9.124;2022-12-07T08:23:38;97374.31;;;1.60;100.00
55914;BME280;58179;48.776;9.124;2022-12-07T08:26:07;97373.59;;;1.73;100.00
55914;BME280;58179;48.776;9.124;2022-12-07T08:28:34;97382.19;;;1.67;100.00
55914;BME280;58179;48.776;9.124;2022-12-07T08:31:00;97376.38;;;1.71;100.00
55914;BME280;58179;48.776;9.124;2022-12-07T08:33:26;97380.63;;;1.79;100.00
55914;BME280;58179;48.776;9.124;2022-12-07T08:35:54;97384.91;;;2.00;100.00
55914;BME280;58179;48.776;9.124;2022-12-07T08:38:20;97384.69;;;1.94;100.00
55914;BME280;58179;48.776;9.124;2022-12-07T08:40:54;97384.72;;;2.01;100.00
55914;BME280;58179;48.776;9.124;2022-12-07T08:43:20;97387.88;;;1.90;100.00
55914;BME280;58179;48.776;9.124;2022-12-07T08:45:47;97388.34;;;2.07;100.00
55914;BME280;58179;48.776;9.124;2022-12-07T08:48:13;97380.31;;;2.15;100.00
55914;BME280;58179;48.776;9.124;2022-12-07T08:50:42;97387.72;;;2.05;100.00
55914;BME280;58179;48.776;9.124;2022-12-07T08:53:10;97394.00;;;2.17;100.00
55914;BME280;58179;48.776;9.124;2022-12-07T08:55:36;97389.59;;;2.24;100.00
55914;BME280;58179;48.776;9.124;2022-12-07T08:58:02;97388.00;;;2.43;100.00
55914;BME280;58179;48.776;9.124;2022-12-07T09:00:28;97387.81;;;2.57;100.00
55914;BME280;58179;48.776;9.124;2022-12-07T09:02:54;97384.00;;;2.47;100.00
55914;BME280;58179;48.776;9.124;2022-12-07T09:05:20;97391.59;;;2.35;100.00
55914;BME280;58179;48.776;9.124;2022-12-07T09:07:51;97384.00;;;2.53;100.00
55914;BME280;58179;48.776;9.124;2022-12-07T09:10:21;97385.41;;;2.56;100.00
55914;BME280;58179;48.776;9.124;2022-12-07T09:12:48;97380.19;;;2.62;100.00
55914;BME280;58179;48.776;9.124;2022-12-07T09:15:14;97387.22;;;2.55;100.00
55914;BME280;58179;48.776;9.124;2022-12-07T09:17:40;97383.59;;;2.50;100.00
55914;BME280;58179;48.776;9.124;2022-12-07T09:20:07;97387.81;;;2.64;100.00
55914;BME280;58179;48.776;9.124;2022-12-07T09:22:33;97388.03;;;2.62;100.00
55914;BME280;58179;48.776;9.124;2022-12-07T09:24:59;97385.22;;;2.77;100.00
55914;BME280;58179;48.776;9.124;2022-12-07T09:27:27;97384.41;;;2.77;100.00
55914;BME280;58179;48.776;9.124;2022-12-07T09:29:53;97391.03;;;2.79;100.00
55914;BME280;58179;48.776;9.124;2022-12-07T09:32:19;97384.41;;;2.90;100.00
55914;BME280;58179;48.776;9.124;2022-12-07T09:34:45;97381.59;;;2.91;100.00
55914;BME280;58179;48.776;9.124;2022-12-07T09:37:11;97378.38;;;2.89;100.00
55914;BME280;58179;48.776;9.124;2022-12-07T09:39:38;97387.41;;;2.87;100.00
55914;BME280;58179;48.776;9.124;2022-12-07T09:42:05;97378.56;;;2.94;100.00
55914;BME280;58179;48.776;9.124;2022-12-07T09:44:34;97382.78;;;2.89;100.00
55914;BME280;58179;48.776;9.124;2022-12-07T09:47:00;97377.75;;;3.14;100.00
55914;BME280;58179;48.776;9.124;2022-12-07T09:49:30;97374.72;;;3.23;100.00
55914;BME280;58179;48.776;9.124;2022-12-07T09:52:02;97375.50;;;3.17;100.00
55914;BME280;58179;48.776;9.124;2022-12-07T09:54:29;97367.06;;;3.22;100.00
55914;BME280;58179;48.776;9.124;2022-12-07T09:56:56;97370.19;;;3.50;100.00
55914;BME280;58179;48.776;9.124;2022-12-07T09:59:21;97375.25;;;3.45;100.00
55914;BME280;58179;48.776;9.124;2022-12-07T10:01:50;97365.22;;;3.35;100.00
55914;BME280;58179;48.776;9.124;2022-12-07T10:04:19;97368.06;;;3.27;100.00
55914;BME280;58179;48.776;9.124;2022-12-07T10:06:46;97353.97;;;3.28;100.00
55914;BME280;58179;48.776;9.124;2022-12-07T10:09:16;97357.19;;;3.30;100.00
55914;BME280;58179;48.776;9.124;2022-12-07T10:12:03;97349.75;;;3.27;100.00
55914;BME280;58179;48.776;9.124;2022-12-07T10:14:33;97345.69;;;3.31;100.00
55914;BME280;58179;48.776;9.124;2022-12-07T10:17:01;97343.50;;;3.28;100.00
55914;BME280;58179;48.776;9.124;2022-12-07T10:19:29;97342.28;;;3.37;100.00
55914;BME280;58179;48.776;9.124;2022-12-07T10:22:09;97339.47;;;3.26;100.00
55914;BME280;58179;48.776;9.124;2022-12-07T10:24:35;97341.00;;;3.53;100.00
55914;BME280;58179;48.776;9.124;2022-12-07T10:27:09;97338.13;;;3.68;100.00
55914;BME280;58179;48.776;9.124;2022-12-07T10:29:48;97335.09;;;3.71;100.00
55914;BME280;58179;48.776;9.124;2022-12-07T10:32:32;97340.94;;;3.73;100.00
55914;BME280;58179;48.776;9.124;2022-12-07T10:35:22;97332.31;;;3.66;100.00
55914;BME280;58179;48.776;9.124;2022-12-07T10:37:49;97342.72;;;3.72;100.00
55914;BME280;58179;48.776;9.124;2022-12-07T10:40:32;97345.56;;;3.71;100.00
55914;BME280;58179;48.776;9.124;2022-12-07T10:43:16;97343.13;;;3.69;100.00
55914;BME280;58179;48.776;9.124;2022-12-07T10:48:52;97326.44;;;3.70;100.00
55914;BME280;58179;48.776;9.124;2022-12-07T10:51:27;97329.44;;;3.74;100.00
55914;BME280;58179;48.776;9.124;2022-12-07T10:54:10;97331.88;;;3.69;100.00
55914;BME280;58179;48.776;9.124;2022-12-07T10:57:25;97324.22;;;3.74;100.00
55914;BME280;58179;48.776;9.124;2022-12-07T11:00:06;97324.22;;;3.74;100.00
55914;BME280;58179;48.776;9.124;2022-12-07T11:05:45;97320.00;;;3.66;100.00
55914;BME280;58179;48.776;9.124;2022-12-07T11:08:22;97312.34;;;3.71;100.00
55914;BME280;58179;48.776;9.124;2022-12-07T11:10:59;97311.16;;;3.67;100.00
55914;BME280;58179;48.776;9.124;2022-12-07T11:13:33;97309.69;;;3.78;100.00
55914;BME280;58179;48.776;9.124;2022-12-07T11:19:12;97306.69;;;3.74;100.00
55914;BME280;58179;48.776;9.124;2022-12-07T11:21:52;97301.78;;;3.84;100.00
55914;BME280;58179;48.776;9.124;2022-12-07T11:24:31;97303.59;;;3.84;100.00
55914;BME280;58179;48.776;9.124;2022-12-07T11:27:14;97299.41;;;3.76;100.00
55914;BME280;58179;48.776;9.124;2022-12-07T11:30:10;97290.94;;;3.81;100.00
55914;BME280;58179;48.776;9.124;2022-12-07T11:33:02;97296.78;;;3.83;100.00
55914;BME280;58179;48.776;9.124;2022-12-07T11:35:43;97290.91;;;3.87;100.00
55914;BME280;58179;48.776;9.124;2022-12-07T11:38:15;97288.28;;;3.87;100.00
55914;BME280;58179;48.776;9.124;2022-12-07T11:40:45;97285.03;;;3.92;100.00
55914;BME280;58179;48.776;9.124;2022-12-07T11:43:20;97287.06;;;3.90;100.00
55914;BME280;58179;48.776;9.124;2022-12-07T11:45:52;97276.19;;;3.86;100.00
55914;BME280;58179;48.776;9.124;2022-12-07T11:48:28;97275.84;;;3.83;100.00
55914;BME280;58179;48.776;9.124;2022-12-07T11:50:59;97277.00;;;3.87;100.00
55914;BME280;58179;48.776;9.124;2022-12-07T11:53:33;97266.13;;;3.90;100.00
55914;BME280;58179;48.776;9.124;2022-12-07T11:56:08;97267.34;;;3.87;100.00
55914;BME280;58179;48.776;9.124;2022-12-07T11:58:44;97266.28;;;3.95;100.00
55914;BME280;58179;48.776;9.124;2022-12-07T12:01:31;97265.69;;;3.93;100.00
55914;BME280;58179;48.776;9.124;2022-12-07T12:04:12;97261.84;;;3.96;100.00
55914;BME280;58179;48.776;9.124;2022-12-07T12:06:45;97264.66;;;3.94;100.00
55914;BME280;58179;48.776;9.124;2022-12-07T12:09:15;97261.88;;;3.89;100.00
55914;BME280;58179;48.776;9.124;2022-12-07T12:12:03;97260.06;;;3.89;100.00
55914;BME280;58179;48.776;9.124;2022-12-07T12:14:46;97264.50;;;3.89;100.00
55914;BME280;58179;48.776;9.124;2022-12-07T12:20:23;97259.88;;;3.84;100.00
55914;BME280;58179;48.776;9.124;2022-12-07T12:22:55;97268.38;;;3.80;100.00
55914;BME280;58179;48.776;9.124;2022-12-07T12:25:27;97257.91;;;3.80;100.00
55914;BME280;58179;48.776;9.124;2022-12-07T12:27:57;97248.09;;;3.75;100.00
55914;BME280;58179;48.776;9.124;2022-12-07T12:30:31;97256.19;;;3.67;100.00
55914;BME280;58179;48.776;9.124;2022-12-07T12:33:04;97257.34;;;3.71;100.00
55914;BME280;58179;48.776;9.124;2022-12-07T12:35:33;97258.97;;;3.72;100.00
55914;BME280;58179;48.776;9.124;2022-12-07T12:38:31;97258.75;;;3.74;100.00
55914;BME280;58179;48.776;9.124;2022-12-07T12:41:02;97250.00;;;3.86;100.00
55914;BME280;58179;48.776;9.124;2022-12-07T12:43:50;97252.63;;;3.86;100.00
55914;BME280;58179;48.776;9.124;2022-12-07T12:46:52;97249.66;;;3.83;100.00
55914;BME280;58179;48.776;9.124;2022-12-07T12:49:44;97243.25;;;3.72;100.00
55914;BME280;58179;48.776;9.124;2022-12-07T12:53:12;97242.31;;;3.92;100.00
55914;BME280;58179;48.776;9.124;2022-12-07T12:56:18;97245.16;;;3.90;100.00
55914;BME280;58179;48.776;9.124;2022-12-07T12:58:48;97240.94;;;3.89;100.00
55914;BME280;58179;48.776;9.124;2022-12-07T13:01:44;97239.69;;;3.98;100.00
55914;BME280;58179;48.776;9.124;2022-12-07T13:04:34;97234.84;;;3.95;100.00
55914;BME280;58179;48.776;9.124;2022-12-07T13:07:00;97222.88;;;3.81;100.00
55914;BME280;58179;48.776;9.124;2022-12-07T13:09:29;97226.66;;;3.85;100.00
55914;BME280;58179;48.776;9.124;2022-12-07T13:12:04;97229.22;;;3.92;100.00
55914;BME280;58179;48.776;9.124;2022-12-07T13:15:01;97223.63;;;3.88;100.00
55914;BME280;58179;48.776;9.124;2022-12-07T13:20:52;97216.38;;;3.83;100.00
55914;BME280;58179;48.776;9.124;2022-12-07T13:23:31;97212.56;;;3.86;100.00
55914;BME280;58179;48.776;9.124;2022-12-07T13:26:19;97210.16;;;3.84;100.00
55914;BME280;58179;48.776;9.124;2022-12-07T13:28:49;97211.13;;;3.90;100.00
55914;BME280;58179;48.776;9.124;2022-12-07T13:31:34;97217.16;;;3.91;100.00
55914;BME280;58179;48.776;9.124;2022-12-07T13:34:01;97220.56;;;3.91;100.00